K.ruby — 3FEU — position and weather

sailwx.info

Track history (hours):
 
Tides and Currents Weather Stations Pressure Air Temp Water Temp Dewpoint Dewpoint Depression Visibility Wind Speed Wind Dir Waves Ship Positions

K.ruby

Last reported at 2018-Feb-13 17:11 UTC. Time now 2018-Feb-20 04:02 UTC.
Position N 41°37' E 141°46'.

Length 190 m; draft 11 m.

Type: Cargo ship. MMSI: 370185000.

Date/timePositionNaut miles runAvg speedWind from/ knotsBaromVisibWave heightAir tempDewpointWater temp
2018-Feb-13 17:11N 41°37' E 141°46'513.1
2018-Feb-13 16:50N 41°37' E 141°39'514.0
2018-Feb-13 16:30N 41°38' E 141°33'714.3
2018-Feb-13 16:00N 41°37' E 141°24'713.6
2018-Feb-13 15:30N 41°37' E 141°15'714.3
2018-Feb-13 15:00N 41°37' E 141°05'816.3
2018-Feb-13 14:30N 41°37' E 140°54'815.2
2018-Feb-13 14:00N 41°33' E 140°45'714.3
2018-Feb-13 13:30N 41°29' E 140°37'714.4
2018-Feb-13 13:00N 41°25' E 140°29'713.9
2018-Feb-13 12:30N 41°21' E 140°22'714.6
2018-Feb-13 12:00N 41°18' E 140°13'  
Track history (hours):
 
Tides and Currents Weather Stations Pressure Air Temp Water Temp Dewpoint Dewpoint Depression Visibility Wind Speed Wind Dir Waves Ship Positions

K.ruby

Last reported at 2018-Feb-13 17:11 UTC. Time now 2018-Feb-20 04:02 UTC.
Position N 41°37' E 141°46'.

Length 190 m; draft 11 m.

Type: Cargo ship. MMSI: 370185000.

Date/timePositionNaut miles runAvg speedWind from/ knotsBaromVisibWave heightAir tempDewpointWater temp
2018-Feb-13 17:11N 41°37' E 141°46'513.1
2018-Feb-13 16:50N 41°37' E 141°39'514.0
2018-Feb-13 16:30N 41°38' E 141°33'714.3
2018-Feb-13 16:00N 41°37' E 141°24'713.6
2018-Feb-13 15:30N 41°37' E 141°15'714.3
2018-Feb-13 15:00N 41°37' E 141°05'816.3
2018-Feb-13 14:30N 41°37' E 140°54'815.2
2018-Feb-13 14:00N 41°33' E 140°45'714.3
2018-Feb-13 13:30N 41°29' E 140°37'714.4
2018-Feb-13 13:00N 41°25' E 140°29'713.9
2018-Feb-13 12:30N 41°21' E 140°22'714.6
2018-Feb-13 12:00N 41°18' E 140°13'  

Dump ship's entire track history